Aalborg, Denmark

10:14 AM CEST on August 05, 2015 (GMT +0200)
Goegeurtvej | | Change Station
CLOSE
Current Station
Personal Weather Station
Location: Vodskov,
Elevation: 33 ft
Nearby Weather Stations

Elev 33 ft 57.11 °N, 10.01 °E | Updated 2 minutes ago

Partly Cloudy
Partly Cloudy
71.6 °F
Feels Like 72 °F
N
1.1
Wind Variable Wind from SSE
Gusts 5.4 mph

Today
High -- | Low -- °F
--% Chance of Precip.
Yesterday
High -- | Low -- °F
Precip. -- in
5:25 AM 9:25 PM
Waning Gibbous, 69% visible
Pressure 29.98 in
Visibility 6.2 miles
Clouds Few 1000 ft
Heat Index 72 °F
Dew Point 65 °F
Humidity 80%
Rainfall 0.06 in
Snow Depth Not available.
UV 3 out of 12
Pollen Not available.
Air Quality Not available.
Flu Activity Not available.
METAR EKYT 050750Z 23008KT 9999 FEW010 19/16 Q1015

More Conditions Fewer Conditions

Pressure 29.98 in
Visibility 6.2 miles
Clouds Few 1000 ft
Heat Index 72 °F
Dew Point 65 °F
Humidity 80%
Rainfall 0.06 in
Snow Depth Not available.
UV 3 out of 12
Pollen Not available.
Air Quality Not available.
Flu Activity Not available.
METAR EKYT 050750Z 23008KT 9999 FEW010 19/16 Q1015

More Conditions Fewer Conditions

10-Day Weather Forecast

×

Almanac

Astronomy

Aug. 05, 2015 Rise Set
Actual Time
Civil Twilight
Nautical Twilight
Astronomical Twilight
Moon
Length of Visible Light
Length of Day
Tomorrow will be .
, % of the Moon is Illuminated

Today's Extremes

Country Highs Country Lows

Community

WunderPhotos

Upload Photos

1,844,105 photos uploaded!

WunderBlogs® & News

Nearby

Air Quality

  Air Quality AQ Index Pollutant
Not available.

Snow Depth

Station Depth Elevation

Earthquake Activity

City Distance Mag. Time & Date
Minimum magnitude displayed is 2.5.

Coastal Water Temperatures

Place Temperature

Stations

Nearby Weather Stations

Station Location Temp. Windchill Dew Point Humidity Wind Precip. Elev Updated Type